Pederneiras, Brazil
Current Conditions -  °F | °C
As of 9:00 PM on Tuesday 21 Oct 2014 (Local Time) from SBBU Reporting Station
Clear Clear  
Wind Chill: 70°   Ceiling: Unl
Heat Index: 70°   Visibility: 6mi
Dew Point: 63°   Wind: 21mph
Humidity: 78%   Direction: 180°S
Pressure: 30.06"   Gusts: NA
Location:  22.35°S, 48.77°W
Report Text: SBBU 212300Z 18018KT CAVOK 21/17 Q1018
Loading
Personal Weather Stations






























Interactive Weather Map
Tropical Storm Tracking
New forecast layout! Learn more

10-Day Weather Forecast

Advertisements
Track Severe Weather on mobile